Time,TemperatureF,DewpointF,PressureIn,WindDirection,WindDirectionDegrees,WindSpeedMPH,WindSpeedGustMPH,Humidity,HourlyPrecipIn,Conditions,Clouds,dailyrainin,SoftwareType,DateUTC
2013-04-20 00:00:00,38.1,17.1,29.97,ENE,72,0.0,0.0,42,0.00,,SKC,0.00,VWS V13.01,2013-04-20 05:00:00,
2013-04-20 00:10:00,37.8,16.8,29.97,ENE,72,0.0,0.0,42,0.00,,SKC,0.00,VWS V13.01,2013-04-20 05:10:00,
2013-04-20 00:30:00,36.9,16.5,29.97,ENE,72,0.0,0.0,43,0.00,,SKC,0.00,VWS V13.01,2013-04-20 05:30:00,
2013-04-20 00:40:00,36.9,16.5,29.97,ENE,72,0.0,0.0,43,0.00,,SKC,0.00,VWS V13.01,2013-04-20 05:40:00,
2013-04-20 00:50:00,36.7,17.4,29.97,ENE,72,0.0,0.0,45,0.00,,SKC,0.00,VWS V13.01,2013-04-20 05:50:00,
2013-04-20 01:00:00,36.7,17.4,30.00,ENE,72,0.0,0.0,45,0.00,,SKC,0.00,VWS V13.01,2013-04-20 06:00:00,
2013-04-20 01:10:00,36.3,17.0,30.00,ENE,72,0.0,0.0,45,0.00,,SKC,0.00,VWS V13.01,2013-04-20 06:10:00,
2013-04-20 01:20:00,36.0,16.7,30.00,ENE,72,0.0,0.0,45,0.00,,SKC,0.00,VWS V13.01,2013-04-20 06:20:00,
2013-04-20 01:30:00,35.2,16.5,30.00,ENE,72,0.0,0.0,46,0.00,,SKC,0.00,VWS V13.01,2013-04-20 06:30:00,
2013-04-20 01:40:00,34.2,15.6,30.00,ENE,72,0.0,0.0,46,0.00,,SKC,0.00,VWS V13.01,2013-04-20 06:40:00,
2013-04-20 01:50:00,33.4,16.4,30.00,ENE,72,0.0,0.0,49,0.00,,SKC,0.00,VWS V13.01,2013-04-20 06:50:00,
2013-04-20 02:00:00,33.3,17.1,30.00,ENE,72,0.0,0.0,51,0.00,,SKC,0.00,VWS V13.01,2013-04-20 07:00:00,
2013-04-20 02:10:00,33.4,18.6,30.00,ENE,72,0.0,0.0,54,0.00,,SKC,0.00,VWS V13.01,2013-04-20 07:10:00,
2013-04-20 02:20:00,32.9,18.9,30.00,ENE,72,0.0,0.0,56,0.00,,SKC,0.00,VWS V13.01,2013-04-20 07:20:00,
2013-04-20 02:30:00,32.2,18.3,30.00,ENE,72,0.0,0.0,56,0.00,,SKC,0.00,VWS V13.01,2013-04-20 07:30:00,
2013-04-20 02:40:00,31.5,18.0,30.00,ENE,72,0.0,0.0,57,0.00,,SKC,0.00,VWS V13.01,2013-04-20 07:40:00,
2013-04-20 02:50:00,31.5,18.0,30.00,ENE,72,0.0,0.0,57,0.00,,SKC,0.00,VWS V13.01,2013-04-20 07:50:00,
2013-04-20 03:00:00,31.1,18.1,30.00,ENE,72,0.0,0.0,58,0.00,,SKC,0.00,VWS V13.01,2013-04-20 08:00:00,
2013-04-20 03:10:00,30.9,18.3,30.00,ENE,72,0.0,0.0,59,0.00,,SKC,0.00,VWS V13.01,2013-04-20 08:10:00,
2013-04-20 03:20:00,30.4,17.8,30.00,ENE,72,0.0,0.0,59,0.00,,SKC,0.00,VWS V13.01,2013-04-20 08:20:00,
2013-04-20 03:30:00,30.0,18.2,30.00,ENE,72,0.0,0.0,61,0.00,,SKC,0.00,VWS V13.01,2013-04-20 08:30:00,
2013-04-20 03:40:00,29.7,17.9,30.03,ENE,72,0.0,0.0,61,0.00,,SKC,0.00,VWS V13.01,2013-04-20 08:40:00,
2013-04-20 03:50:00,29.5,18.1,30.03,ENE,72,0.0,0.0,62,0.00,,SKC,0.00,VWS V13.01,2013-04-20 08:50:00,
2013-04-20 04:00:00,29.1,18.1,30.03,ENE,72,0.0,0.0,63,0.00,,SKC,0.00,VWS V13.01,2013-04-20 09:00:00,
2013-04-20 04:10:00,28.8,18.1,30.03,ENE,72,0.0,0.0,64,0.00,,SKC,0.00,VWS V13.01,2013-04-20 09:10:00,
2013-04-20 04:20:00,28.6,18.3,30.03,ENE,72,0.0,0.0,65,0.00,,SKC,0.00,VWS V13.01,2013-04-20 09:20:00,
2013-04-20 04:30:00,28.6,18.7,30.00,ENE,72,0.0,0.0,66,0.00,,SKC,0.00,VWS V13.01,2013-04-20 09:30:00,
2013-04-20 04:40:00,28.0,18.5,30.03,ENE,72,0.0,0.0,67,0.00,,SKC,0.00,VWS V13.01,2013-04-20 09:40:00,
2013-04-20 04:50:00,28.0,18.5,30.03,ENE,72,0.0,0.0,67,0.00,,SKC,0.00,VWS V13.01,2013-04-20 09:50:00,
2013-04-20 05:00:00,28.2,19.0,30.03,ENE,72,0.0,0.0,68,0.00,,SKC,0.00,VWS V13.01,2013-04-20 10:00:00,
2013-04-20 05:10:00,27.7,18.5,30.03,ENE,72,0.0,0.0,68,0.00,,SKC,0.00,VWS V13.01,2013-04-20 10:10:00,
2013-04-20 05:20:00,27.5,18.3,30.03,ENE,72,0.0,0.0,68,0.00,,SKC,0.00,VWS V13.01,2013-04-20 10:20:00,
2013-04-20 05:30:00,27.5,18.3,30.03,ENE,72,0.0,0.0,68,0.00,,SKC,0.00,VWS V13.01,2013-04-20 10:30:00,
2013-04-20 05:40:00,27.5,18.7,30.03,ENE,72,0.0,0.0,69,0.00,,SKC,0.00,VWS V13.01,2013-04-20 10:40:00,
2013-04-20 05:50:00,27.3,18.5,30.03,ENE,72,0.0,0.0,69,0.00,,SKC,0.00,VWS V13.01,2013-04-20 10:50:00,
2013-04-20 06:00:00,27.3,18.5,30.03,ENE,72,0.0,0.0,69,0.00,,SKC,0.00,VWS V13.01,2013-04-20 11:00:00,
2013-04-20 06:10:00,27.3,18.5,30.03,ENE,72,0.0,0.0,69,0.00,,SKC,0.00,VWS V13.01,2013-04-20 11:10:00,
2013-04-20 06:20:00,27.0,18.5,30.03,ENE,72,0.0,0.0,70,0.00,,SKC,0.00,VWS V13.01,2013-04-20 11:20:00,
2013-04-20 06:30:00,26.8,18.3,30.06,ENE,72,0.0,0.0,70,0.00,,SKC,0.00,VWS V13.01,2013-04-20 11:30:00,
2013-04-20 06:40:00,26.8,18.3,30.06,ENE,72,0.0,0.0,70,0.00,,SKC,0.00,VWS V13.01,2013-04-20 11:40:00,
2013-04-20 06:50:00,26.6,18.5,30.06,ENE,72,0.0,0.0,71,0.00,,SKC,0.00,VWS V13.01,2013-04-20 11:50:00,
2013-04-20 07:00:00,26.6,18.5,30.06,ENE,72,0.0,0.0,71,0.00,,SKC,0.00,VWS V13.01,2013-04-20 12:00:00,
2013-04-20 07:10:00,27.1,19.0,30.06,ENE,72,0.0,0.0,71,0.00,,SKC,0.00,VWS V13.01,2013-04-20 12:10:00,
2013-04-20 07:20:00,28.8,20.9,30.06,ENE,72,0.0,0.0,72,0.00,,SKC,0.00,VWS V13.01,2013-04-20 12:20:00,
2013-04-20 07:30:00,30.4,22.1,30.09,ENE,72,0.0,0.0,71,0.00,,SKC,0.00,VWS V13.01,2013-04-20 12:30:00,
2013-04-20 07:40:00,32.5,23.9,30.09,ENE,72,0.0,0.0,70,0.00,,SKC,0.00,VWS V13.01,2013-04-20 12:40:00,
2013-04-20 07:50:00,33.8,24.7,30.09,ENE,72,0.0,0.0,69,0.00,,SKC,0.00,VWS V13.01,2013-04-20 12:50:00,
2013-04-20 08:00:00,35.4,25.9,30.09,ENE,73,0.0,0.0,68,0.00,,SKC,0.00,VWS V13.01,2013-04-20 13:00:00,
2013-04-20 08:10:00,36.7,24.9,30.09,SSW,201,2.7,3.6,62,0.00,,SKC,0.00,VWS V13.01,2013-04-20 13:10:00,
2013-04-20 08:20:00,37.2,23.0,30.09,SSW,195,0.0,4.9,56,0.00,,SKC,0.00,VWS V13.01,2013-04-20 13:20:00,
2013-04-20 08:30:00,37.6,21.6,30.09,South,182,0.0,4.0,52,0.00,,SKC,0.00,VWS V13.01,2013-04-20 13:30:00,
2013-04-20 08:40:00,38.7,22.6,30.09,South,177,0.0,0.0,52,0.00,,SKC,0.00,VWS V13.01,2013-04-20 13:40:00,
2013-04-20 08:50:00,38.7,21.6,30.09,SSW,194,0.0,6.3,50,0.00,,SKC,0.00,VWS V13.01,2013-04-20 13:50:00,
2013-04-20 09:00:00,37.9,21.0,30.09,South,185,3.6,7.6,50,0.00,,SKC,0.00,VWS V13.01,2013-04-20 14:00:00,
2013-04-20 09:10:00,37.8,21.7,30.12,SSW,199,3.1,5.8,52,0.00,,SKC,0.00,VWS V13.01,2013-04-20 14:10:00,
2013-04-20 09:20:00,37.8,21.7,30.12,South,187,0.0,6.3,52,0.00,,SKC,0.00,VWS V13.01,2013-04-20 14:20:00,
2013-04-20 09:30:00,38.1,21.1,30.12,SSW,195,4.0,6.3,50,0.00,,SKC,0.00,VWS V13.01,2013-04-20 14:30:00,
2013-04-20 09:40:00,38.5,22.4,30.09,South,190,4.0,6.3,52,0.00,,SKC,0.00,VWS V13.01,2013-04-20 14:40:00,
2013-04-20 09:50:00,38.8,21.8,30.09,SSW,196,4.0,6.3,50,0.00,,SKC,0.00,VWS V13.01,2013-04-20 14:50:00,
2013-04-20 10:00:00,39.0,22.0,30.12,SSW,200,0.0,5.8,50,0.00,,SKC,0.00,VWS V13.01,2013-04-20 15:00:00,
2013-04-20 10:10:00,39.6,22.0,30.12,SSW,195,0.0,4.9,49,0.00,,SKC,0.00,VWS V13.01,2013-04-20 15:10:00,
2013-04-20 10:20:00,40.6,23.0,30.12,SSW,196,0.0,3.6,49,0.00,,SKC,0.00,VWS V13.01,2013-04-20 15:20:00,
2013-04-20 10:30:00,41.5,22.8,30.12,SSE,166,0.0,5.8,47,0.00,,SKC,0.00,VWS V13.01,2013-04-20 15:30:00,
2013-04-20 10:40:00,42.4,23.6,30.12,South,190,2.7,4.9,47,0.00,,SKC,0.00,VWS V13.01,2013-04-20 15:40:00,
2013-04-20 10:50:00,42.3,21.9,30.12,SSW,209,0.0,5.8,44,0.00,,SKC,0.00,VWS V13.01,2013-04-20 15:50:00,
2013-04-20 11:00:00,42.8,22.4,30.12,ESE,114,0.0,4.0,44,0.00,,SKC,0.00,VWS V13.01,2013-04-20 16:00:00,
2013-04-20 11:10:00,43.2,22.7,30.12,SSW,200,5.8,6.3,44,0.00,,SKC,0.00,VWS V13.01,2013-04-20 16:10:00,
2013-04-20 11:20:00,43.2,22.7,30.12,South,183,3.6,7.6,44,0.00,,SKC,0.00,VWS V13.01,2013-04-20 16:20:00,
2013-04-20 11:30:00,43.7,21.6,30.12,WSW,241,6.7,7.6,41,0.00,,SKC,0.00,VWS V13.01,2013-04-20 16:30:00,
2013-04-20 11:40:00,44.2,22.0,30.12,SSE,167,4.0,6.7,41,0.00,,SKC,0.00,VWS V13.01,2013-04-20 16:40:00,
2013-04-20 11:50:00,44.8,22.5,30.12,SSE,160,0.0,7.6,41,0.00,,SKC,0.00,VWS V13.01,2013-04-20 16:50:00,
2013-04-20 12:00:00,45.0,22.7,30.12,South,187,0.0,5.4,41,0.00,,SKC,0.00,VWS V13.01,2013-04-20 17:00:00,
2013-04-20 12:10:00,44.8,22.5,30.12,SSW,193,0.0,5.8,41,0.00,,SKC,0.00,VWS V13.01,2013-04-20 17:10:00,
2013-04-20 12:20:00,45.3,23.0,30.12,WSW,247,0.0,5.4,41,0.00,,SKC,0.00,VWS V13.01,2013-04-20 17:20:00,
2013-04-20 12:30:00,46.4,23.4,30.12,SE,140,0.0,5.8,40,0.00,,SKC,0.00,VWS V13.01,2013-04-20 17:30:00,
2013-04-20 12:40:00,47.5,24.4,30.12,SSW,205,0.0,8.1,40,0.00,,SKC,0.00,VWS V13.01,2013-04-20 17:40:00,
2013-04-20 12:50:00,47.7,24.5,30.12,SSW,203,0.0,7.6,40,0.00,,SKC,0.00,VWS V13.01,2013-04-20 17:50:00,
2013-04-20 13:00:00,48.2,25.0,30.12,SSW,192,5.4,6.3,40,0.00,,SKC,0.00,VWS V13.01,2013-04-20 18:00:00,
2013-04-20 13:10:00,48.4,25.2,30.09,South,171,2.7,6.7,40,0.00,,SKC,0.00,VWS V13.01,2013-04-20 18:10:00,
2013-04-20 13:20:00,48.2,25.0,30.09,South,177,0.0,9.6,40,0.00,,SKC,0.00,VWS V13.01,2013-04-20 18:20:00,
2013-04-20 13:30:00,48.7,25.5,30.09,South,175,7.6,8.7,40,0.00,,SKC,0.00,VWS V13.01,2013-04-20 18:30:00,
2013-04-20 13:40:00,48.2,25.0,30.09,South,184,8.1,8.7,40,0.00,,SKC,0.00,VWS V13.01,2013-04-20 18:40:00,
2013-04-20 13:50:00,48.2,25.0,30.09,SE,136,4.0,8.1,40,0.00,,SKC,0.00,VWS V13.01,2013-04-20 18:50:00,
2013-04-20 14:00:00,48.2,25.0,30.09,South,190,7.6,7.6,40,0.00,,SKC,0.00,VWS V13.01,2013-04-20 19:00:00,
2013-04-20 14:10:00,48.6,25.4,30.09,South,188,8.3,8.3,40,0.00,,SKC,0.00,VWS V13.01,2013-04-20 19:10:00,
2013-04-20 14:20:00,49.3,26.0,30.09,South,184,4.0,8.7,40,0.00,,SKC,0.00,VWS V13.01,2013-04-20 19:20:00,
2013-04-20 14:30:00,50.0,26.6,30.06,SSE,147,0.0,8.7,40,0.00,,SKC,0.00,VWS V13.01,2013-04-20 19:30:00,
2013-04-20 14:40:00,50.9,27.5,30.06,South,183,6.7,8.1,40,0.00,,SKC,0.00,VWS V13.01,2013-04-20 19:40:00,
2013-04-20 14:50:00,50.9,27.5,30.06,South,189,0.0,10.1,40,0.00,,SKC,0.00,VWS V13.01,2013-04-20 19:50:00,
2013-04-20 15:00:00,51.3,27.8,30.06,SSW,192,2.7,10.1,40,0.00,,SKC,0.00,VWS V13.01,2013-04-20 20:00:00,
2013-04-20 15:10:00,52.7,28.5,30.03,South,171,4.0,5.8,39,0.00,,SKC,0.00,VWS V13.01,2013-04-20 20:10:00,
2013-04-20 15:20:00,52.7,28.5,30.03,South,185,0.0,6.3,39,0.00,,SKC,0.00,VWS V13.01,2013-04-20 20:20:00,
2013-04-20 15:30:00,52.5,28.3,30.06,SW,214,3.6,6.7,39,0.00,,SKC,0.00,VWS V13.01,2013-04-20 20:30:00,
2013-04-20 15:40:00,52.5,28.3,30.03,SSW,195,3.6,7.6,39,0.00,,SKC,0.00,VWS V13.01,2013-04-20 20:40:00,
2013-04-20 15:50:00,52.9,28.6,30.03,ESE,115,2.7,5.4,39,0.00,,SKC,0.00,VWS V13.01,2013-04-20 20:50:00,
2013-04-20 16:00:00,53.6,29.3,30.03,South,177,4.9,5.8,39,0.00,,SKC,0.00,VWS V13.01,2013-04-20 21:00:00,
2013-04-20 16:10:00,53.6,29.3,30.03,ENE,65,0.0,8.7,39,0.00,,SKC,0.00,VWS V13.01,2013-04-20 21:10:00,
2013-04-20 16:20:00,53.2,28.9,30.03,SSW,201,5.4,9.6,39,0.00,,SKC,0.00,VWS V13.01,2013-04-20 21:20:00,
2013-04-20 16:30:00,53.4,29.1,30.03,ESE,109,0.0,5.4,39,0.00,,SKC,0.00,VWS V13.01,2013-04-20 21:30:00,
2013-04-20 16:40:00,53.6,29.3,30.03,WSW,244,0.0,8.3,39,0.00,,SKC,0.00,VWS V13.01,2013-04-20 21:40:00,
2013-04-20 16:50:00,53.6,29.3,30.03,SW,217,2.7,8.1,39,0.00,,SKC,0.00,VWS V13.01,2013-04-20 21:50:00,
2013-04-20 17:00:00,53.6,29.3,30.03,South,177,7.6,8.3,39,0.00,,SKC,0.00,VWS V13.01,2013-04-20 22:00:00,
2013-04-20 17:10:00,53.8,29.4,30.03,SSW,196,6.3,7.6,39,0.00,,SKC,0.00,VWS V13.01,2013-04-20 22:10:00,
2013-04-20 17:20:00,54.0,29.6,30.03,ENE,63,0.0,8.1,39,0.00,,SKC,0.00,VWS V13.01,2013-04-20 22:20:00,
2013-04-20 17:30:00,53.6,29.3,30.03,SW,214,0.0,8.1,39,0.00,,SKC,0.00,VWS V13.01,2013-04-20 22:30:00,
2013-04-20 17:40:00,53.1,28.8,30.03,SSW,205,5.4,5.8,39,0.00,,SKC,0.00,VWS V13.01,2013-04-20 22:40:00,
2013-04-20 17:50:00,53.1,28.8,30.03,SSW,197,3.6,7.6,39,0.00,,SKC,0.00,VWS V13.01,2013-04-20 22:50:00,
2013-04-20 18:00:00,53.1,28.8,30.03,SSW,192,4.9,7.6,39,0.00,,SKC,0.00,VWS V13.01,2013-04-20 23:00:00,
2013-04-20 18:10:00,52.7,28.5,30.03,SSW,197,3.1,8.1,39,0.00,,SKC,0.00,VWS V13.01,2013-04-20 23:10:00,
2013-04-20 18:20:00,52.5,28.3,30.03,SSW,202,4.9,8.3,39,0.00,,SKC,0.00,VWS V13.01,2013-04-20 23:20:00,
2013-04-20 18:30:00,52.5,28.3,30.00,South,172,3.6,6.3,39,0.00,,SKC,0.00,VWS V13.01,2013-04-20 23:30:00,
2013-04-20 18:40:00,52.3,28.1,30.00,SSW,204,3.1,7.6,39,0.00,,SKC,0.00,VWS V13.01,2013-04-20 23:40:00,
2013-04-20 18:50:00,52.2,28.0,30.00,SSW,211,2.2,8.3,39,0.00,,SKC,0.00,VWS V13.01,2013-04-20 23:50:00,
2013-04-20 19:00:00,52.0,27.8,30.03,SSW,202,2.2,7.6,39,0.00,,SKC,0.00,VWS V13.01,2013-04-21 00:00:00,
2013-04-20 19:10:00,51.6,28.1,30.03,SSW,209,0.0,5.8,40,0.00,,SKC,0.00,VWS V13.01,2013-04-21 00:10:00,
2013-04-20 19:20:00,51.4,27.9,30.03,SW,227,0.0,5.8,40,0.00,,SKC,0.00,VWS V13.01,2013-04-21 00:20:00,
2013-04-20 19:30:00,51.3,27.8,30.03,South,176,0.0,5.8,40,0.00,,SKC,0.00,VWS V13.01,2013-04-21 00:30:00,
2013-04-20 19:40:00,50.9,27.5,30.03,SSW,192,0.0,6.7,40,0.00,,SKC,0.00,VWS V13.01,2013-04-21 00:40:00,
2013-04-20 19:50:00,50.7,27.3,30.03,SSW,213,0.0,6.3,40,0.00,,SKC,0.00,VWS V13.01,2013-04-21 00:50:00,
2013-04-20 20:00:00,50.4,27.0,30.03,SSW,213,0.0,5.8,40,0.00,,SKC,0.00,VWS V13.01,2013-04-21 01:00:00,
2013-04-20 20:10:00,50.2,26.8,30.03,SSW,204,3.1,5.8,40,0.00,,SKC,0.00,VWS V13.01,2013-04-21 01:10:00,
2013-04-20 20:20:00,50.0,26.6,30.03,SSW,211,3.1,5.8,40,0.00,,SKC,0.00,VWS V13.01,2013-04-21 01:20:00,
2013-04-20 20:30:00,49.6,26.3,30.03,SSW,208,3.6,5.8,40,0.00,,SKC,0.00,VWS V13.01,2013-04-21 01:30:00,
2013-04-20 20:40:00,49.5,26.2,30.03,SSW,205,3.6,6.3,40,0.00,,SKC,0.00,VWS V13.01,2013-04-21 01:40:00,
2013-04-20 20:50:00,49.3,26.0,30.03,South,177,5.4,6.7,40,0.00,,SKC,0.00,VWS V13.01,2013-04-21 01:50:00,
2013-04-20 21:00:00,49.1,25.8,30.03,South,191,2.7,8.1,40,0.00,,SKC,0.00,VWS V13.01,2013-04-21 02:00:00,
2013-04-20 21:10:00,48.9,25.7,30.03,SSW,199,2.7,7.6,40,0.00,,SKC,0.00,VWS V13.01,2013-04-21 02:10:00,
2013-04-20 21:20:00,48.9,25.7,30.03,SSW,193,4.9,6.3,40,0.00,,SKC,0.00,VWS V13.01,2013-04-21 02:20:00,
2013-04-20 21:30:00,48.7,25.5,30.03,SSW,209,4.0,8.3,40,0.00,,SKC,0.00,VWS V13.01,2013-04-21 02:30:00,
2013-04-20 21:40:00,48.7,25.5,30.06,South,183,8.3,10.1,40,0.00,,SKC,0.00,VWS V13.01,2013-04-21 02:40:00,
2013-04-20 21:50:00,48.6,25.4,30.06,SW,221,3.6,8.3,40,0.00,,SKC,0.00,VWS V13.01,2013-04-21 02:50:00,
2013-04-20 22:00:00,48.4,25.2,30.06,SSW,192,2.7,6.3,40,0.00,,SKC,0.00,VWS V13.01,2013-04-21 03:00:00,
2013-04-20 22:10:00,48.2,25.0,30.06,SSW,193,4.9,6.3,40,0.00,,SKC,0.00,VWS V13.01,2013-04-21 03:10:00,
2013-04-20 22:20:00,48.2,25.0,30.06,South,179,7.6,8.7,40,0.00,,SKC,0.00,VWS V13.01,2013-04-21 03:20:00,
2013-04-20 22:30:00,48.0,24.9,30.06,South,191,5.4,8.3,40,0.00,,SKC,0.00,VWS V13.01,2013-04-21 03:30:00,
2013-04-20 22:40:00,47.7,24.5,30.06,South,184,6.3,8.3,40,0.00,,SKC,0.00,VWS V13.01,2013-04-21 03:40:00,
2013-04-20 22:50:00,47.5,24.4,30.06,SSW,196,5.4,8.7,40,0.00,,SKC,0.00,VWS V13.01,2013-04-21 03:50:00,
2013-04-20 23:00:00,47.5,24.4,30.03,SSW,204,6.3,8.3,40,0.00,,SKC,0.00,VWS V13.01,2013-04-21 04:00:00,
2013-04-20 23:10:00,47.5,24.4,30.03,South,182,2.7,8.7,40,0.00,,SKC,0.00,VWS V13.01,2013-04-21 04:10:00,
2013-04-20 23:20:00,47.3,24.2,30.03,SSW,197,2.7,5.4,40,0.00,,SKC,0.00,VWS V13.01,2013-04-21 04:20:00,
2013-04-20 23:30:00,47.3,24.2,30.03,SSW,205,2.7,7.6,40,0.00,,SKC,0.00,VWS V13.01,2013-04-21 04:30:00,
2013-04-20 23:40:00,47.3,24.2,30.03,SSW,198,2.7,5.8,40,0.00,,SKC,0.00,VWS V13.01,2013-04-21 04:40:00,
2013-04-20 23:50:00,47.3,24.2,30.03,SSW,201,0.0,6.3,40,0.00,,SKC,0.00,VWS V13.01,2013-04-21 04:50:00,